sensor_id;sensor_type;location;lat;lon;timestamp;temperature;humidity
71117;SHT31;58775;46.992;9.518;2023-04-24T00:00:35;9.77;93.80
71117;SHT31;58775;46.992;9.518;2023-04-24T00:02:36;9.84;93.54
71117;SHT31;58775;46.992;9.518;2023-04-24T00:04:41;10.07;92.26
71117;SHT31;58775;46.992;9.518;2023-04-24T00:06:45;10.01;93.11
71117;SHT31;58775;46.992;9.518;2023-04-24T00:08:50;9.88;93.53
71117;SHT31;58775;46.992;9.518;2023-04-24T00:10:51;9.81;93.55
71117;SHT31;58775;46.992;9.518;2023-04-24T00:12:53;9.84;92.93
71117;SHT31;58775;46.992;9.518;2023-04-24T00:14:54;10.07;90.83
71117;SHT31;58775;46.992;9.518;2023-04-24T00:16:55;10.15;90.99
71117;SHT31;58775;46.992;9.518;2023-04-24T00:18:57;10.15;88.23
71117;SHT31;58775;46.992;9.518;2023-04-24T00:20:59;10.21;88.87
71117;SHT31;58775;46.992;9.518;2023-04-24T00:23:00;9.99;88.75
71117;SHT31;58775;46.992;9.518;2023-04-24T00:25:02;9.66;89.91
71117;SHT31;58775;46.992;9.518;2023-04-24T00:27:04;9.75;90.33
71117;SHT31;58775;46.992;9.518;2023-04-24T00:29:05;9.93;88.72
71117;SHT31;58775;46.992;9.518;2023-04-24T00:31:06;10.02;89.51
71117;SHT31;58775;46.992;9.518;2023-04-24T00:33:08;10.09;90.12
71117;SHT31;58775;46.992;9.518;2023-04-24T00:35:09;9.91;89.79
71117;SHT31;58775;46.992;9.518;2023-04-24T00:37:11;9.78;92.19
71117;SHT31;58775;46.992;9.518;2023-04-24T00:39:12;9.50;92.38
71117;SHT31;58775;46.992;9.518;2023-04-24T00:41:13;9.61;90.27
71117;SHT31;58775;46.992;9.518;2023-04-24T00:43:15;9.71;92.20
71117;SHT31;58775;46.992;9.518;2023-04-24T00:45:17;9.77;88.21
71117;SHT31;58775;46.992;9.518;2023-04-24T00:47:19;9.81;88.26
71117;SHT31;58775;46.992;9.518;2023-04-24T00:49:23;9.84;89.09
71117;SHT31;58775;46.992;9.518;2023-04-24T00:51:25;9.71;90.40
71117;SHT31;58775;46.992;9.518;2023-04-24T00:53:26;9.75;87.61
71117;SHT31;58775;46.992;9.518;2023-04-24T00:55:27;9.57;85.05
71117;SHT31;58775;46.992;9.518;2023-04-24T00:57:29;9.53;88.46
71117;SHT31;58775;46.992;9.518;2023-04-24T00:59:30;9.61;87.80
71117;SHT31;58775;46.992;9.518;2023-04-24T01:01:32;9.77;86.95
71117;SHT31;58775;46.992;9.518;2023-04-24T01:03:33;9.66;89.18
71117;SHT31;58775;46.992;9.518;2023-04-24T01:05:35;9.73;89.70
71117;SHT31;58775;46.992;9.518;2023-04-24T01:07:38;9.43;91.02
71117;SHT31;58775;46.992;9.518;2023-04-24T01:09:40;9.47;90.70
71117;SHT31;58775;46.992;9.518;2023-04-24T01:11:44;9.50;91.22
71117;SHT31;58775;46.992;9.518;2023-04-24T01:13:47;9.37;93.66
71117;SHT31;58775;46.992;9.518;2023-04-24T01:15:48;9.18;92.92
71117;SHT31;58775;46.992;9.518;2023-04-24T01:17:51;9.22;93.02
71117;SHT31;58775;46.992;9.518;2023-04-24T01:19:55;9.29;92.85
71117;SHT31;58775;46.992;9.518;2023-04-24T01:21:59;9.25;94.26
71117;SHT31;58775;46.992;9.518;2023-04-24T01:24:04;9.26;93.58
71117;SHT31;58775;46.992;9.518;2023-04-24T01:26:06;9.39;92.41
71117;SHT31;58775;46.992;9.518;2023-04-24T01:28:08;9.29;92.80
71117;SHT31;58775;46.992;9.518;2023-04-24T01:30:10;9.40;92.64
71117;SHT31;58775;46.992;9.518;2023-04-24T01:32:12;9.53;91.01
71117;SHT31;58775;46.992;9.518;2023-04-24T01:34:14;9.57;86.85
71117;SHT31;58775;46.992;9.518;2023-04-24T01:36:18;9.47;87.75
71117;SHT31;58775;46.992;9.518;2023-04-24T01:38:20;9.37;87.28
71117;SHT31;58775;46.992;9.518;2023-04-24T01:40:22;9.47;87.62
71117;SHT31;58775;46.992;9.518;2023-04-24T01:42:24;9.46;87.91
71117;SHT31;58775;46.992;9.518;2023-04-24T01:44:25;9.37;87.77
71117;SHT31;58775;46.992;9.518;2023-04-24T01:46:27;9.29;88.03
71117;SHT31;58775;46.992;9.518;2023-04-24T01:48:29;9.25;86.88
71117;SHT31;58775;46.992;9.518;2023-04-24T01:50:31;9.26;86.56
71117;SHT31;58775;46.992;9.518;2023-04-24T01:52:33;9.25;87.40
71117;SHT31;58775;46.992;9.518;2023-04-24T01:54:35;9.23;87.82
71117;SHT31;58775;46.992;9.518;2023-04-24T01:56:42;9.32;86.97
71117;SHT31;58775;46.992;9.518;2023-04-24T01:58:44;9.01;87.42
71117;SHT31;58775;46.992;9.518;2023-04-24T02:00:46;9.12;88.16
71117;SHT31;58775;46.992;9.518;2023-04-24T02:02:48;9.12;86.69
71117;SHT31;58775;46.992;9.518;2023-04-24T02:04:50;9.08;87.90
71117;SHT31;58775;46.992;9.518;2023-04-24T02:06:52;9.13;86.97
71117;SHT31;58775;46.992;9.518;2023-04-24T02:08:53;9.09;87.72
71117;SHT31;58775;46.992;9.518;2023-04-24T02:10:54;9.09;86.75
71117;SHT31;58775;46.992;9.518;2023-04-24T02:12:55;9.05;87.30
71117;SHT31;58775;46.992;9.518;2023-04-24T02:14:59;9.01;88.34
71117;SHT31;58775;46.992;9.518;2023-04-24T02:17:00;8.75;90.09
71117;SHT31;58775;46.992;9.518;2023-04-24T02:19:03;8.89;86.97
71117;SHT31;58775;46.992;9.518;2023-04-24T02:21:04;8.81;86.74
71117;SHT31;58775;46.992;9.518;2023-04-24T02:23:06;8.92;87.52
71117;SHT31;58775;46.992;9.518;2023-04-24T02:25:08;8.84;89.08
71117;SHT31;58775;46.992;9.518;2023-04-24T02:27:09;8.79;87.17
71117;SHT31;58775;46.992;9.518;2023-04-24T02:29:12;8.67;89.34
71117;SHT31;58775;46.992;9.518;2023-04-24T02:31:13;8.61;89.46
71117;SHT31;58775;46.992;9.518;2023-04-24T02:33:15;8.71;89.07
71117;SHT31;58775;46.992;9.518;2023-04-24T02:35:16;8.65;89.56
71117;SHT31;58775;46.992;9.518;2023-04-24T02:37:18;8.72;89.86
71117;SHT31;58775;46.992;9.518;2023-04-24T02:39:19;8.75;90.75
71117;SHT31;58775;46.992;9.518;2023-04-24T02:41:21;8.75;88.58
71117;SHT31;58775;46.992;9.518;2023-04-24T02:43:23;8.52;91.17
71117;SHT31;58775;46.992;9.518;2023-04-24T02:45:24;8.75;90.44
71117;SHT31;58775;46.992;9.518;2023-04-24T02:47:26;8.57;91.87
71117;SHT31;58775;46.992;9.518;2023-04-24T02:49:27;8.54;92.32
71117;SHT31;58775;46.992;9.518;2023-04-24T02:51:29;8.62;89.48
71117;SHT31;58775;46.992;9.518;2023-04-24T02:53:30;8.55;91.74
71117;SHT31;58775;46.992;9.518;2023-04-24T02:55:31;8.48;89.81
71117;SHT31;58775;46.992;9.518;2023-04-24T02:57:33;8.60;88.84
71117;SHT31;58775;46.992;9.518;2023-04-24T02:59:34;8.55;88.47
71117;SHT31;58775;46.992;9.518;2023-04-24T03:01:36;8.62;88.88
71117;SHT31;58775;46.992;9.518;2023-04-24T03:03:38;8.51;90.16
71117;SHT31;58775;46.992;9.518;2023-04-24T03:05:39;8.57;91.29
71117;SHT31;58775;46.992;9.518;2023-04-24T03:07:40;8.48;88.62
71117;SHT31;58775;46.992;9.518;2023-04-24T03:09:42;8.55;88.99
71117;SHT31;58775;46.992;9.518;2023-04-24T03:11:43;8.54;90.16
71117;SHT31;58775;46.992;9.518;2023-04-24T03:13:44;8.69;90.00
71117;SHT31;58775;46.992;9.518;2023-04-24T03:15:46;8.50;92.34
71117;SHT31;58775;46.992;9.518;2023-04-24T03:17:47;8.30;93.71
71117;SHT31;58775;46.992;9.518;2023-04-24T03:19:49;8.36;93.37
71117;SHT31;58775;46.992;9.518;2023-04-24T03:21:50;8.37;93.69
71117;SHT31;58775;46.992;9.518;2023-04-24T03:23:52;8.36;93.65
71117;SHT31;58775;46.992;9.518;2023-04-24T03:25:53;8.45;94.59
71117;SHT31;58775;46.992;9.518;2023-04-24T03:27:56;8.57;93.30
71117;SHT31;58775;46.992;9.518;2023-04-24T03:30:26;8.34;92.98
71117;SHT31;58775;46.992;9.518;2023-04-24T03:32:32;8.30;93.25
71117;SHT31;58775;46.992;9.518;2023-04-24T03:34:33;8.44;92.73
71117;SHT31;58775;46.992;9.518;2023-04-24T03:36:36;8.65;91.95
71117;SHT31;58775;46.992;9.518;2023-04-24T03:38:38;8.69;92.14
71117;SHT31;58775;46.992;9.518;2023-04-24T03:41:08;8.69;92.18
71117;SHT31;58775;46.992;9.518;2023-04-24T03:43:14;8.57;93.19
71117;SHT31;58775;46.992;9.518;2023-04-24T03:45:16;8.48;92.94
71117;SHT31;58775;46.992;9.518;2023-04-24T03:47:22;8.60;91.53
71117;SHT31;58775;46.992;9.518;2023-04-24T03:49:24;8.43;92.72
71117;SHT31;58775;46.992;9.518;2023-04-24T03:51:25;8.16;93.79
71117;SHT31;58775;46.992;9.518;2023-04-24T03:53:33;8.38;93.02
71117;SHT31;58775;46.992;9.518;2023-04-24T03:55:34;8.52;92.43
71117;SHT31;58775;46.992;9.518;2023-04-24T03:57:36;8.51;92.95
71117;SHT31;58775;46.992;9.518;2023-04-24T03:59:45;8.52;93.25
71117;SHT31;58775;46.992;9.518;2023-04-24T04:01:51;8.64;89.43
71117;SHT31;58775;46.992;9.518;2023-04-24T04:03:52;8.47;89.61
71117;SHT31;58775;46.992;9.518;2023-04-24T04:05:57;8.61;88.77
71117;SHT31;58775;46.992;9.518;2023-04-24T04:07:59;8.52;91.59
71117;SHT31;58775;46.992;9.518;2023-04-24T04:10:01;8.50;91.35
71117;SHT31;58775;46.992;9.518;2023-04-24T04:12:03;8.40;92.24
71117;SHT31;58775;46.992;9.518;2023-04-24T04:14:06;8.16;94.04
71117;SHT31;58775;46.992;9.518;2023-04-24T04:16:09;8.07;94.91
71117;SHT31;58775;46.992;9.518;2023-04-24T04:18:11;8.23;95.26
71117;SHT31;58775;46.992;9.518;2023-04-24T04:20:13;8.36;93.96
71117;SHT31;58775;46.992;9.518;2023-04-24T04:22:15;8.51;92.73
71117;SHT31;58775;46.992;9.518;2023-04-24T04:24:20;8.31;93.04
71117;SHT31;58775;46.992;9.518;2023-04-24T04:26:26;8.21;93.55
71117;SHT31;58775;46.992;9.518;2023-04-24T04:28:43;8.23;94.26
71117;SHT31;58775;46.992;9.518;2023-04-24T04:30:46;8.34;94.99
71117;SHT31;58775;46.992;9.518;2023-04-24T04:32:48;8.31;93.07
71117;SHT31;58775;46.992;9.518;2023-04-24T04:34:49;8.31;93.94
71117;SHT31;58775;46.992;9.518;2023-04-24T04:36:55;8.34;95.32
71117;SHT31;58775;46.992;9.518;2023-04-24T04:39:22;8.33;92.20
71117;SHT31;58775;46.992;9.518;2023-04-24T04:41:42;8.43;91.96
71117;SHT31;58775;46.992;9.518;2023-04-24T04:43:45;8.47;93.44
71117;SHT31;58775;46.992;9.518;2023-04-24T04:45:47;8.47;93.86
71117;SHT31;58775;46.992;9.518;2023-04-24T04:48:10;8.71;92.02
71117;SHT31;58775;46.992;9.518;2023-04-24T04:50:15;8.69;91.35
71117;SHT31;58775;46.992;9.518;2023-04-24T04:52:18;8.50;93.27
71117;SHT31;58775;46.992;9.518;2023-04-24T04:54:23;8.54;93.27
71117;SHT31;58775;46.992;9.518;2023-04-24T04:56:26;8.61;92.07
71117;SHT31;58775;46.992;9.518;2023-04-24T04:58:27;8.54;93.07
71117;SHT31;58775;46.992;9.518;2023-04-24T05:00:32;8.47;93.61
71117;SHT31;58775;46.992;9.518;2023-04-24T05:02:41;8.55;93.52
71117;SHT31;58775;46.992;9.518;2023-04-24T05:04:42;8.54;92.59
71117;SHT31;58775;46.992;9.518;2023-04-24T05:06:44;8.38;93.44
71117;SHT31;58775;46.992;9.518;2023-04-24T05:08:46;8.44;94.58
71117;SHT31;58775;46.992;9.518;2023-04-24T05:11:05;8.36;93.50
71117;SHT31;58775;46.992;9.518;2023-04-24T05:13:07;8.37;93.29
71117;SHT31;58775;46.992;9.518;2023-04-24T05:15:10;8.45;94.86
71117;SHT31;58775;46.992;9.518;2023-04-24T05:17:11;8.61;92.86
71117;SHT31;58775;46.992;9.518;2023-04-24T05:19:13;8.64;92.70
71117;SHT31;58775;46.992;9.518;2023-04-24T05:21:24;8.88;91.21
71117;SHT31;58775;46.992;9.518;2023-04-24T05:23:27;8.92;90.64
71117;SHT31;58775;46.992;9.518;2023-04-24T05:25:30;8.92;90.96
71117;SHT31;58775;46.992;9.518;2023-04-24T05:27:41;8.84;92.39
71117;SHT31;58775;46.992;9.518;2023-04-24T05:29:50;8.64;92.24
71117;SHT31;58775;46.992;9.518;2023-04-24T05:31:52;8.55;94.32
71117;SHT31;58775;46.992;9.518;2023-04-24T05:33:54;8.45;93.90
71117;SHT31;58775;46.992;9.518;2023-04-24T05:35:57;8.61;93.89
71117;SHT31;58775;46.992;9.518;2023-04-24T05:38:00;8.79;91.95
71117;SHT31;58775;46.992;9.518;2023-04-24T05:40:01;8.78;91.83
71117;SHT31;58775;46.992;9.518;2023-04-24T05:42:06;8.74;92.48
71117;SHT31;58775;46.992;9.518;2023-04-24T05:44:08;8.95;91.26
71117;SHT31;58775;46.992;9.518;2023-04-24T05:46:10;9.02;90.64
71117;SHT31;58775;46.992;9.518;2023-04-24T05:48:17;8.75;92.24
71117;SHT31;58775;46.992;9.518;2023-04-24T05:50:20;8.81;92.28
71117;SHT31;58775;46.992;9.518;2023-04-24T05:52:24;8.98;91.54
71117;SHT31;58775;46.992;9.518;2023-04-24T05:54:27;9.03;91.11
71117;SHT31;58775;46.992;9.518;2023-04-24T05:56:31;9.15;90.42
71117;SHT31;58775;46.992;9.518;2023-04-24T05:58:34;9.02;91.90
71117;SHT31;58775;46.992;9.518;2023-04-24T06:00:36;8.93;92.61
71117;SHT31;58775;46.992;9.518;2023-04-24T06:02:41;8.96;92.03
71117;SHT31;58775;46.992;9.518;2023-04-24T06:04:45;9.02;93.37
71117;SHT31;58775;46.992;9.518;2023-04-24T06:06:47;9.02;93.92
71117;SHT31;58775;46.992;9.518;2023-04-24T06:08:52;8.93;93.74
71117;SHT31;58775;46.992;9.518;2023-04-24T06:10:54;8.95;94.00
71117;SHT31;58775;46.992;9.518;2023-04-24T06:12:56;9.01;94.41
71117;SHT31;58775;46.992;9.518;2023-04-24T06:15:03;9.11;94.37
71117;SHT31;58775;46.992;9.518;2023-04-24T06:17:27;9.13;94.57
71117;SHT31;58775;46.992;9.518;2023-04-24T06:19:29;9.15;93.69
71117;SHT31;58775;46.992;9.518;2023-04-24T06:21:31;9.12;91.55
71117;SHT31;58775;46.992;9.518;2023-04-24T06:23:34;9.02;91.32
71117;SHT31;58775;46.992;9.518;2023-04-24T06:25:36;9.05;92.19
71117;SHT31;58775;46.992;9.518;2023-04-24T06:27:39;9.19;90.49
71117;SHT31;58775;46.992;9.518;2023-04-24T06:29:42;9.09;92.74
71117;SHT31;58775;46.992;9.518;2023-04-24T06:31:44;9.11;92.90
71117;SHT31;58775;46.992;9.518;2023-04-24T06:33:46;9.20;92.29
71117;SHT31;58775;46.992;9.518;2023-04-24T06:35:48;9.20;93.37
71117;SHT31;58775;46.992;9.518;2023-04-24T06:37:51;9.22;92.90
71117;SHT31;58775;46.992;9.518;2023-04-24T06:39:52;9.34;92.63
71117;SHT31;58775;46.992;9.518;2023-04-24T06:41:54;9.47;90.94
71117;SHT31;58775;46.992;9.518;2023-04-24T06:43:56;9.32;91.12
71117;SHT31;58775;46.992;9.518;2023-04-24T06:45:58;9.26;92.90
71117;SHT31;58775;46.992;9.518;2023-04-24T06:47:59;9.01;93.27
71117;SHT31;58775;46.992;9.518;2023-04-24T06:50:01;9.22;92.96
71117;SHT31;58775;46.992;9.518;2023-04-24T06:52:03;9.15;93.67
71117;SHT31;58775;46.992;9.518;2023-04-24T06:54:04;9.09;94.30
71117;SHT31;58775;46.992;9.518;2023-04-24T06:56:06;8.98;94.53
71117;SHT31;58775;46.992;9.518;2023-04-24T06:58:07;9.05;94.86
71117;SHT31;58775;46.992;9.518;2023-04-24T07:00:09;9.22;93.11
71117;SHT31;58775;46.992;9.518;2023-04-24T07:02:11;9.29;92.70
71117;SHT31;58775;46.992;9.518;2023-04-24T07:04:12;9.16;93.51
71117;SHT31;58775;46.992;9.518;2023-04-24T07:06:14;9.27;93.29
71117;SHT31;58775;46.992;9.518;2023-04-24T07:08:17;9.32;92.22
71117;SHT31;58775;46.992;9.518;2023-04-24T07:10:19;9.36;92.29
71117;SHT31;58775;46.992;9.518;2023-04-24T07:12:21;9.43;91.99
71117;SHT31;58775;46.992;9.518;2023-04-24T07:14:22;9.20;94.08
71117;SHT31;58775;46.992;9.518;2023-04-24T07:16:24;9.48;92.49
71117;SHT31;58775;46.992;9.518;2023-04-24T07:18:25;9.67;91.57
71117;SHT31;58775;46.992;9.518;2023-04-24T07:20:26;9.66;90.42
71117;SHT31;58775;46.992;9.518;2023-04-24T07:22:28;9.75;92.00
71117;SHT31;58775;46.992;9.518;2023-04-24T07:24:30;9.97;92.06
71117;SHT31;58775;46.992;9.518;2023-04-24T07:26:33;9.98;93.71
71117;SHT31;58775;46.992;9.518;2023-04-24T07:28:34;10.04;94.08
71117;SHT31;58775;46.992;9.518;2023-04-24T07:30:36;10.31;94.14
71117;SHT31;58775;46.992;9.518;2023-04-24T07:32:38;10.46;92.34
71117;SHT31;58775;46.992;9.518;2023-04-24T07:34:39;10.65;90.13
71117;SHT31;58775;46.992;9.518;2023-04-24T07:36:41;11.03;87.40
71117;SHT31;58775;46.992;9.518;2023-04-24T07:38:43;11.07;87.67
71117;SHT31;58775;46.992;9.518;2023-04-24T07:40:45;11.20;87.91
71117;SHT31;58775;46.992;9.518;2023-04-24T07:42:46;11.47;85.36
71117;SHT31;58775;46.992;9.518;2023-04-24T07:44:49;11.81;84.19
71117;SHT31;58775;46.992;9.518;2023-04-24T07:46:52;11.88;83.67
71117;SHT31;58775;46.992;9.518;2023-04-24T07:48:54;11.98;87.62
71117;SHT31;58775;46.992;9.518;2023-04-24T07:50:56;12.23;84.89
71117;SHT31;58775;46.992;9.518;2023-04-24T07:52:57;12.22;85.57
71117;SHT31;58775;46.992;9.518;2023-04-24T07:54:59;12.63;80.21
71117;SHT31;58775;46.992;9.518;2023-04-24T07:57:01;12.51;81.86
71117;SHT31;58775;46.992;9.518;2023-04-24T07:59:03;12.67;81.13
71117;SHT31;58775;46.992;9.518;2023-04-24T08:01:04;12.74;80.29
71117;SHT31;58775;46.992;9.518;2023-04-24T08:03:06;12.77;80.43
71117;SHT31;58775;46.992;9.518;2023-04-24T08:05:07;12.90;79.66
71117;SHT31;58775;46.992;9.518;2023-04-24T08:07:09;12.81;80.18
71117;SHT31;58775;46.992;9.518;2023-04-24T08:09:10;12.71;80.34
71117;SHT31;58775;46.992;9.518;2023-04-24T08:11:12;12.59;81.39
71117;SHT31;58775;46.992;9.518;2023-04-24T08:13:13;12.61;82.20
71117;SHT31;58775;46.992;9.518;2023-04-24T08:15:15;12.65;82.28
71117;SHT31;58775;46.992;9.518;2023-04-24T08:17:17;12.92;78.85
71117;SHT31;58775;46.992;9.518;2023-04-24T08:19:18;13.49;78.34
71117;SHT31;58775;46.992;9.518;2023-04-24T08:21:20;13.76;76.52
71117;SHT31;58775;46.992;9.518;2023-04-24T08:23:22;13.77;75.75
71117;SHT31;58775;46.992;9.518;2023-04-24T08:25:24;14.09;75.44
71117;SHT31;58775;46.992;9.518;2023-04-24T08:27:26;14.17;80.17
71117;SHT31;58775;46.992;9.518;2023-04-24T08:29:27;14.89;76.06
71117;SHT31;58775;46.992;9.518;2023-04-24T08:31:29;15.22;70.63
71117;SHT31;58775;46.992;9.518;2023-04-24T08:33:31;15.86;69.71
71117;SHT31;58775;46.992;9.518;2023-04-24T08:35:35;16.01;69.83
71117;SHT31;58775;46.992;9.518;2023-04-24T08:37:37;16.18;66.78
71117;SHT31;58775;46.992;9.518;2023-04-24T08:39:39;16.14;67.70
71117;SHT31;58775;46.992;9.518;2023-04-24T08:41:42;15.51;69.05
71117;SHT31;58775;46.992;9.518;2023-04-24T08:43:46;14.71;71.25
71117;SHT31;58775;46.992;9.518;2023-04-24T08:45:47;14.98;70.25
71117;SHT31;58775;46.992;9.518;2023-04-24T08:47:49;14.61;71.75
71117;SHT31;58775;46.992;9.518;2023-04-24T08:49:51;14.40;72.32
71117;SHT31;58775;46.992;9.518;2023-04-24T08:51:53;14.27;78.46
71117;SHT31;58775;46.992;9.518;2023-04-24T08:53:54;14.47;76.71
71117;SHT31;58775;46.992;9.518;2023-04-24T08:55:56;14.33;74.87
71117;SHT31;58775;46.992;9.518;2023-04-24T08:57:59;14.68;71.51
71117;SHT31;58775;46.992;9.518;2023-04-24T09:00:02;14.88;71.76
71117;SHT31;58775;46.992;9.518;2023-04-24T09:02:04;14.52;76.03
71117;SHT31;58775;46.992;9.518;2023-04-24T09:04:09;14.45;74.76
71117;SHT31;58775;46.992;9.518;2023-04-24T09:06:14;14.63;74.11
71117;SHT31;58775;46.992;9.518;2023-04-24T09:08:18;14.03;77.71
71117;SHT31;58775;46.992;9.518;2023-04-24T09:10:20;14.20;73.16
71117;SHT31;58775;46.992;9.518;2023-04-24T09:12:22;14.09;74.15
71117;SHT31;58775;46.992;9.518;2023-04-24T09:14:24;13.90;75.10
71117;SHT31;58775;46.992;9.518;2023-04-24T09:16:26;13.77;72.66
71117;SHT31;58775;46.992;9.518;2023-04-24T09:18:27;13.24;74.80
71117;SHT31;58775;46.992;9.518;2023-04-24T09:20:28;13.21;77.23
71117;SHT31;58775;46.992;9.518;2023-04-24T09:22:30;12.91;79.46
71117;SHT31;58775;46.992;9.518;2023-04-24T09:24:33;12.87;75.45
71117;SHT31;58775;46.992;9.518;2023-04-24T09:26:36;12.13;78.23
71117;SHT31;58775;46.992;9.518;2023-04-24T09:28:39;12.05;83.93
71117;SHT31;58775;46.992;9.518;2023-04-24T09:30:41;11.65;76.53
71117;SHT31;58775;46.992;9.518;2023-04-24T09:32:42;11.77;80.12
71117;SHT31;58775;46.992;9.518;2023-04-24T09:34:47;11.64;82.97
71117;SHT31;58775;46.992;9.518;2023-04-24T09:36:48;11.71;80.60
71117;SHT31;58775;46.992;9.518;2023-04-24T09:38:57;11.74;82.96
71117;SHT31;58775;46.992;9.518;2023-04-24T09:41:00;11.55;80.22
71117;SHT31;58775;46.992;9.518;2023-04-24T09:43:03;11.47;76.84
71117;SHT31;58775;46.992;9.518;2023-04-24T09:45:09;11.57;77.02
71117;SHT31;58775;46.992;9.518;2023-04-24T09:47:13;11.51;79.82
71117;SHT31;58775;46.992;9.518;2023-04-24T09:49:16;11.61;81.64
71117;SHT31;58775;46.992;9.518;2023-04-24T09:51:33;11.31;82.16
71117;SHT31;58775;46.992;9.518;2023-04-24T09:53:37;11.32;74.69
71117;SHT31;58775;46.992;9.518;2023-04-24T09:55:45;11.26;80.74
71117;SHT31;58775;46.992;9.518;2023-04-24T09:57:55;11.31;79.77
71117;SHT31;58775;46.992;9.518;2023-04-24T09:59:57;11.35;78.27
71117;SHT31;58775;46.992;9.518;2023-04-24T10:01:59;11.47;75.91
71117;SHT31;58775;46.992;9.518;2023-04-24T10:04:01;11.57;81.12
71117;SHT31;58775;46.992;9.518;2023-04-24T10:06:03;11.72;80.41
71117;SHT31;58775;46.992;9.518;2023-04-24T10:08:10;12.09;76.95
71117;SHT31;58775;46.992;9.518;2023-04-24T10:10:12;12.06;76.37
71117;SHT31;58775;46.992;9.518;2023-04-24T10:12:14;12.26;78.78
71117;SHT31;58775;46.992;9.518;2023-04-24T10:14:21;12.02;74.90
71117;SHT31;58775;46.992;9.518;2023-04-24T10:16:23;11.85;73.95
71117;SHT31;58775;46.992;9.518;2023-04-24T10:18:26;11.38;77.21
71117;SHT31;58775;46.992;9.518;2023-04-24T10:20:29;11.13;77.12
71117;SHT31;58775;46.992;9.518;2023-04-24T10:22:33;11.24;76.18
71117;SHT31;58775;46.992;9.518;2023-04-24T10:24:36;11.34;79.12
71117;SHT31;58775;46.992;9.518;2023-04-24T10:26:40;11.58;73.75
71117;SHT31;58775;46.992;9.518;2023-04-24T10:28:42;11.52;78.68
71117;SHT31;58775;46.992;9.518;2023-04-24T10:30:45;11.65;77.50
71117;SHT31;58775;46.992;9.518;2023-04-24T10:32:47;11.89;75.61
71117;SHT31;58775;46.992;9.518;2023-04-24T10:34:49;11.98;77.63
71117;SHT31;58775;46.992;9.518;2023-04-24T10:36:51;11.38;80.03
71117;SHT31;58775;46.992;9.518;2023-04-24T10:38:55;11.67;78.14
71117;SHT31;58775;46.992;9.518;2023-04-24T10:41:07;11.61;79.19
71117;SHT31;58775;46.992;9.518;2023-04-24T10:43:10;11.57;81.13
71117;SHT31;58775;46.992;9.518;2023-04-24T10:45:21;11.42;80.73
71117;SHT31;58775;46.992;9.518;2023-04-24T10:47:23;11.81;79.48
71117;SHT31;58775;46.992;9.518;2023-04-24T10:49:28;11.67;83.03
71117;SHT31;58775;46.992;9.518;2023-04-24T10:51:50;11.91;78.78
71117;SHT31;58775;46.992;9.518;2023-04-24T10:53:51;11.67;77.48
71117;SHT31;58775;46.992;9.518;2023-04-24T10:56:07;11.13;81.16
71117;SHT31;58775;46.992;9.518;2023-04-24T10:58:10;10.53;83.14
71117;SHT31;58775;46.992;9.518;2023-04-24T11:00:19;9.93;80.46
71117;SHT31;58775;46.992;9.518;2023-04-24T11:02:38;9.70;80.88
71117;SHT31;58775;46.992;9.518;2023-04-24T11:04:41;9.91;82.26
71117;SHT31;58775;46.992;9.518;2023-04-24T11:06:43;9.87;83.66
71117;SHT31;58775;46.992;9.518;2023-04-24T11:08:45;10.04;85.96
71117;SHT31;58775;46.992;9.518;2023-04-24T11:10:54;10.39;84.27
71117;SHT31;58775;46.992;9.518;2023-04-24T11:12:55;10.39;81.72
71117;SHT31;58775;46.992;9.518;2023-04-24T11:16:58;10.84;81.71
71117;SHT31;58775;46.992;9.518;2023-04-24T11:19:29;11.65;79.44
71117;SHT31;58775;46.992;9.518;2023-04-24T11:21:36;12.46;77.98
71117;SHT31;58775;46.992;9.518;2023-04-24T11:23:39;12.61;73.74
71117;SHT31;58775;46.992;9.518;2023-04-24T11:25:41;12.84;77.01
71117;SHT31;58775;46.992;9.518;2023-04-24T11:27:44;14.13;75.00
71117;SHT31;58775;46.992;9.518;2023-04-24T11:29:59;13.69;72.85
71117;SHT31;58775;46.992;9.518;2023-04-24T11:34:21;15.40;68.46
71117;SHT31;58775;46.992;9.518;2023-04-24T11:36:23;15.96;64.58
71117;SHT31;58775;46.992;9.518;2023-04-24T11:38:24;15.68;62.09
71117;SHT31;58775;46.992;9.518;2023-04-24T11:40:26;15.19;66.91
71117;SHT31;58775;46.992;9.518;2023-04-24T11:42:27;13.96;68.53
71117;SHT31;58775;46.992;9.518;2023-04-24T11:44:29;14.10;73.49
71117;SHT31;58775;46.992;9.518;2023-04-24T11:46:32;14.09;68.16
71117;SHT31;58775;46.992;9.518;2023-04-24T11:48:36;14.55;65.16
71117;SHT31;58775;46.992;9.518;2023-04-24T11:50:46;14.85;66.27
71117;SHT31;58775;46.992;9.518;2023-04-24T11:52:49;14.24;71.54
71117;SHT31;58775;46.992;9.518;2023-04-24T11:54:50;14.35;72.36
71117;SHT31;58775;46.992;9.518;2023-04-24T11:56:52;14.45;67.05
71117;SHT31;58775;46.992;9.518;2023-04-24T11:58:53;13.97;66.13
71117;SHT31;58775;46.992;9.518;2023-04-24T12:00:56;14.20;68.49
71117;SHT31;58775;46.992;9.518;2023-04-24T12:03:09;13.73;74.37
71117;SHT31;58775;46.992;9.518;2023-04-24T12:05:21;14.03;68.41
71117;SHT31;58775;46.992;9.518;2023-04-24T12:07:23;13.89;73.89
71117;SHT31;58775;46.992;9.518;2023-04-24T12:09:25;13.59;69.42
71117;SHT31;58775;46.992;9.518;2023-04-24T12:11:26;13.45;65.77
71117;SHT31;58775;46.992;9.518;2023-04-24T12:13:29;12.51;70.16
71117;SHT31;58775;46.992;9.518;2023-04-24T12:15:30;12.30;73.60
71117;SHT31;58775;46.992;9.518;2023-04-24T12:17:33;12.50;73.12
71117;SHT31;58775;46.992;9.518;2023-04-24T12:19:34;12.12;73.03
71117;SHT31;58775;46.992;9.518;2023-04-24T12:21:35;11.86;72.63
71117;SHT31;58775;46.992;9.518;2023-04-24T12:23:37;12.18;74.47
71117;SHT31;58775;46.992;9.518;2023-04-24T12:25:39;12.02;73.94
71117;SHT31;58775;46.992;9.518;2023-04-24T12:27:42;11.95;71.78
71117;SHT31;58775;46.992;9.518;2023-04-24T12:29:57;11.69;71.96
71117;SHT31;58775;46.992;9.518;2023-04-24T12:31:59;11.61;71.83
71117;SHT31;58775;46.992;9.518;2023-04-24T12:34:00;11.72;72.30
71117;SHT31;58775;46.992;9.518;2023-04-24T12:36:02;11.32;75.22
71117;SHT31;58775;46.992;9.518;2023-04-24T12:38:13;11.59;69.94
71117;SHT31;58775;46.992;9.518;2023-04-24T12:40:17;11.32;76.22
71117;SHT31;58775;46.992;9.518;2023-04-24T12:42:26;11.32;72.98
71117;SHT31;58775;46.992;9.518;2023-04-24T12:44:34;11.62;74.98
71117;SHT31;58775;46.992;9.518;2023-04-24T12:46:36;11.61;71.68
71117;SHT31;58775;46.992;9.518;2023-04-24T12:48:37;11.57;73.32
71117;SHT31;58775;46.992;9.518;2023-04-24T12:50:38;11.50;71.62
71117;SHT31;58775;46.992;9.518;2023-04-24T12:52:40;11.32;71.96
71117;SHT31;58775;46.992;9.518;2023-04-24T12:54:41;11.42;71.82
71117;SHT31;58775;46.992;9.518;2023-04-24T12:56:42;11.27;70.85
71117;SHT31;58775;46.992;9.518;2023-04-24T12:58:43;11.41;75.66
71117;SHT31;58775;46.992;9.518;2023-04-24T13:00:45;11.51;74.88
71117;SHT31;58775;46.992;9.518;2023-04-24T13:02:46;11.75;76.72
71117;SHT31;58775;46.992;9.518;2023-04-24T13:04:48;11.91;75.07
71117;SHT31;58775;46.992;9.518;2023-04-24T13:06:49;12.29;73.41
71117;SHT31;58775;46.992;9.518;2023-04-24T13:08:50;12.23;72.83
71117;SHT31;58775;46.992;9.518;2023-04-24T13:10:52;12.64;74.99